In Rescue
 
Open Full Screen Window  High Contrast Mode
Wind Gusting 22 knots
13
October 25, 2021 5:09 PM EDT
Present Weather: Light Drizzle
Weather Information
Wind Direction
  020 °
Wind Speed
  13 kt (15 mph)
Wind Gust
  22 kt (25 mph)
Altimeter
29.78 in
Visibility
10 SM
Temperature
09° C
48° F
Dewpoint
07° C
45° F
Humidity
87%
Sky Condition
Overcast @ 1,600 ft
MVFR

METAR KPHN 252109Z AUTO 02013G22KT 10SM -DZ OVC016 09/07 A2978 RMK AO2

FAA Disclaimer: The data displayed is for advisory purposes only and is not to be used for flight planning or operations.